Isle of Islay, United Kingdom
Current Conditions -  °F | °C
As of 6:20 AM on Saturday 25 Oct 2014 (Local Time) from EGPI Reporting Station
Scattered Clouds Scattered Clouds  
Wind Chill: 52°   Ceiling: Unl
Heat Index: 52°   Visibility: 6mi
Dew Point: 46°   Wind: 21mph
Humidity: 82%   Direction: 200°SSW
Pressure: 29.62"   Gusts: 33mph
Location:  55.63°N, 6.2°W
Report Text: EGPI 250520Z AUTO 20018G29KT 170V230 9999 SCT020/// SCT028/// 11/08 Q1003
Loading
Personal Weather Stations






























Interactive Weather Map
Tropical Storm Tracking
New forecast layout! Learn more

10-Day Weather Forecast

Advertisements
Track Severe Weather on mobile